📊 Raw Sensor Data
Showing records 33926 to 33950 of 84,813 total
| ID | Distance (ft) | Battery V | Battery A | Int Temp (°F) | Int Humid (%) | Ext Temp (°F) | Solar V | RSSI | SNR | Time Stamp |
|---|---|---|---|---|---|---|---|---|---|---|
| 50900 | 15.0 | 3.90 | -5 | 60 | 44 | 61 | 0.00 | -73 | 8 | 09/03/2025 01:30 AM |
| 50899 | 15.0 | 3.90 | -5 | 60 | 45 | 61 | 0.00 | -73 | 7 | 09/03/2025 01:15 AM |
| 50898 | 15.0 | 3.90 | -5 | 61 | 45 | 61 | 0.00 | -71 | 8 | 09/03/2025 01:00 AM |
| 50897 | 15.0 | 3.90 | -5 | 61 | 45 | 61 | 0.00 | -72 | 8 | 09/03/2025 12:45 AM |
| 50896 | 15.0 | 3.84 | -5 | 62 | 45 | 63 | 0.00 | -72 | 8 | 09/03/2025 12:30 AM |
| 50895 | 15.1 | 3.84 | -5 | 62 | 45 | 63 | 0.00 | -71 | 8 | 09/03/2025 12:15 AM |
| 50894 | 15.1 | 3.84 | -5 | 62 | 45 | 63 | 0.00 | -71 | 7 | 09/03/2025 12:00 AM |
| 50893 | 15.1 | 3.84 | -5 | 63 | 45 | 63 | 0.00 | -70 | 8 | 09/02/2025 11:45 PM |
| 50892 | 15.1 | 3.84 | -5 | 64 | 45 | 64 | 0.00 | -72 | 8 | 09/02/2025 11:30 PM |
| 50891 | 15.0 | 3.90 | -5 | 65 | 45 | 65 | 0.00 | -71 | 8 | 09/02/2025 11:15 PM |
| 50890 | 15.1 | 3.84 | -5 | 65 | 45 | 66 | 0.10 | -72 | 7 | 09/02/2025 11:00 PM |
| 50889 | 15.0 | 3.84 | -5 | 66 | 46 | 66 | 0.00 | -72 | 8 | 09/02/2025 10:45 PM |
| 50888 | 15.0 | 3.84 | -5 | 66 | 46 | 67 | 0.00 | -71 | 8 | 09/02/2025 10:30 PM |
| 50887 | 15.0 | 3.85 | -5 | 67 | 46 | 67 | 0.00 | -73 | 8 | 09/02/2025 10:15 PM |
| 50886 | 15.0 | 3.90 | -5 | 67 | 46 | 68 | 0.00 | -72 | 7 | 09/02/2025 10:00 PM |
| 50885 | 15.1 | 3.85 | -5 | 68 | 47 | 68 | 0.00 | -72 | 8 | 09/02/2025 09:45 PM |
| 50884 | 15.1 | 3.85 | -5 | 68 | 47 | 68 | 0.00 | -74 | 8 | 09/02/2025 09:30 PM |
| 50883 | 15.1 | 3.85 | -5 | 70 | 48 | 70 | 0.00 | -73 | 8 | 09/02/2025 09:00 PM |
| 50882 | 15.0 | 3.85 | -5 | 71 | 48 | 70 | 0.00 | -72 | 8 | 09/02/2025 08:45 PM |
| 50881 | 15.1 | 3.85 | -5 | 72 | 49 | 71 | 0.00 | -73 | 8 | 09/02/2025 08:30 PM |
| 50880 | 15.1 | 3.85 | -5 | 73 | 49 | 73 | 0.00 | -72 | 8 | 09/02/2025 08:15 PM |
| 50879 | 15.1 | 3.85 | -5 | 74 | 50 | 73 | 0.00 | -74 | 7 | 09/02/2025 08:00 PM |
| 50878 | 15.1 | 3.85 | -5 | 76 | 52 | 74 | 0.50 | -75 | 8 | 09/02/2025 07:45 PM |
| 50877 | 15.6 | 3.87 | 0 | 114 | 43 | 100 | 5.10 | -69 | 7 | 09/01/2025 03:15 PM |
| 50876 | 15.6 | 3.87 | 0 | 113 | 42 | 101 | 5.20 | -70 | 8 | 09/01/2025 03:00 PM |